sensor_id;sensor_type;location;lat;lon;timestamp;pressure;altitude;pressure_sealevel;temperature;humidity
40918;BME280;26644;50.248;19.032;2023-07-13T00:01:59;97798.34;;;20.03;78.96
40918;BME280;26644;50.248;19.032;2023-07-13T00:05:05;97802.22;;;19.98;78.35
40918;BME280;26644;50.248;19.032;2023-07-13T00:08:10;97792.03;;;19.90;78.83
40918;BME280;26644;50.248;19.032;2023-07-13T00:11:15;97796.38;;;19.87;78.32
40918;BME280;26644;50.248;19.032;2023-07-13T00:14:24;97819.19;;;19.93;78.06
40918;BME280;26644;50.248;19.032;2023-07-13T00:17:29;97835.91;;;19.93;77.80
40918;BME280;26644;50.248;19.032;2023-07-13T00:20:34;97839.38;;;19.90;77.80
40918;BME280;26644;50.248;19.032;2023-07-13T00:23:40;97836.44;;;19.99;78.30
40918;BME280;26644;50.248;19.032;2023-07-13T00:26:46;97839.72;;;20.01;78.46
40918;BME280;26644;50.248;19.032;2023-07-13T00:29:53;97831.41;;;20.04;79.92
40918;BME280;26644;50.248;19.032;2023-07-13T00:32:58;97826.41;;;20.10;80.71
40918;BME280;26644;50.248;19.032;2023-07-13T00:36:03;97832.19;;;20.17;79.67
40918;BME280;26644;50.248;19.032;2023-07-13T00:39:09;97826.97;;;20.16;79.87
40918;BME280;26644;50.248;19.032;2023-07-13T00:42:13;97827.63;;;20.25;79.49
40918;BME280;26644;50.248;19.032;2023-07-13T00:49:27;97789.88;;;20.28;78.98
40918;BME280;26644;50.248;19.032;2023-07-13T00:52:38;97790.91;;;20.39;77.38
40918;BME280;26644;50.248;19.032;2023-07-13T00:55:47;97807.38;;;20.44;77.28
40918;BME280;26644;50.248;19.032;2023-07-13T00:58:55;97802.25;;;20.46;78.09
40918;BME280;26644;50.248;19.032;2023-07-13T01:02:01;97802.78;;;20.52;78.52
40918;BME280;26644;50.248;19.032;2023-07-13T01:05:13;97809.25;;;20.56;79.23
40918;BME280;26644;50.248;19.032;2023-07-13T01:08:19;97796.56;;;20.58;78.05
40918;BME280;26644;50.248;19.032;2023-07-13T01:11:26;97773.00;;;20.56;77.94
40918;BME280;26644;50.248;19.032;2023-07-13T01:14:31;97783.25;;;20.68;77.96
40918;BME280;26644;50.248;19.032;2023-07-13T01:17:36;97789.28;;;20.70;78.33
40918;BME280;26644;50.248;19.032;2023-07-13T01:20:52;97791.63;;;20.68;79.08
40918;BME280;26644;50.248;19.032;2023-07-13T01:23:58;97794.88;;;20.70;79.14
40918;BME280;26644;50.248;19.032;2023-07-13T01:27:05;97785.66;;;20.69;79.44
40918;BME280;26644;50.248;19.032;2023-07-13T01:30:11;97812.03;;;20.72;79.91
40918;BME280;26644;50.248;19.032;2023-07-13T01:33:17;97804.03;;;20.70;80.29
40918;BME280;26644;50.248;19.032;2023-07-13T01:36:25;97823.56;;;20.70;81.18
40918;BME280;26644;50.248;19.032;2023-07-13T01:39:29;97825.44;;;20.66;81.32
40918;BME280;26644;50.248;19.032;2023-07-13T01:42:34;97822.75;;;20.70;81.78
40918;BME280;26644;50.248;19.032;2023-07-13T01:45:39;97792.88;;;20.70;81.99
40918;BME280;26644;50.248;19.032;2023-07-13T01:48:45;97786.41;;;20.66;81.68
40918;BME280;26644;50.248;19.032;2023-07-13T01:51:52;97797.47;;;20.63;81.54
40918;BME280;26644;50.248;19.032;2023-07-13T01:54:57;97799.72;;;20.57;82.78
40918;BME280;26644;50.248;19.032;2023-07-13T01:58:01;97800.72;;;20.49;83.47
40918;BME280;26644;50.248;19.032;2023-07-13T02:01:07;97802.63;;;20.45;84.20
40918;BME280;26644;50.248;19.032;2023-07-13T02:04:11;97793.38;;;20.40;84.71
40918;BME280;26644;50.248;19.032;2023-07-13T02:07:18;97789.50;;;20.29;84.52
40918;BME280;26644;50.248;19.032;2023-07-13T02:10:23;97780.59;;;20.23;84.80
40918;BME280;26644;50.248;19.032;2023-07-13T02:13:28;97774.94;;;20.20;84.27
40918;BME280;26644;50.248;19.032;2023-07-13T02:16:32;97769.97;;;20.13;83.90
40918;BME280;26644;50.248;19.032;2023-07-13T02:19:37;97774.78;;;20.00;83.12
40918;BME280;26644;50.248;19.032;2023-07-13T02:22:44;97764.09;;;19.86;83.03
40918;BME280;26644;50.248;19.032;2023-07-13T02:25:49;97742.69;;;19.58;83.65
40918;BME280;26644;50.248;19.032;2023-07-13T02:28:57;97740.66;;;19.43;84.57
40918;BME280;26644;50.248;19.032;2023-07-13T02:32:03;97727.41;;;19.24;84.30
40918;BME280;26644;50.248;19.032;2023-07-13T02:35:08;97710.75;;;19.12;84.50
40918;BME280;26644;50.248;19.032;2023-07-13T02:38:16;97718.41;;;19.15;84.96
40918;BME280;26644;50.248;19.032;2023-07-13T02:41:20;97709.34;;;19.18;85.23
40918;BME280;26644;50.248;19.032;2023-07-13T02:44:25;97714.78;;;19.14;84.91
40918;BME280;26644;50.248;19.032;2023-07-13T02:47:32;97722.69;;;19.12;85.64
40918;BME280;26644;50.248;19.032;2023-07-13T02:50:37;97736.53;;;19.24;85.61
40918;BME280;26644;50.248;19.032;2023-07-13T02:53:43;97712.53;;;19.32;85.64
40918;BME280;26644;50.248;19.032;2023-07-13T02:56:48;97712.28;;;19.37;83.94
40918;BME280;26644;50.248;19.032;2023-07-13T02:59:53;97710.91;;;19.31;83.24
40918;BME280;26644;50.248;19.032;2023-07-13T03:02:58;97729.34;;;19.23;84.28
40918;BME280;26644;50.248;19.032;2023-07-13T03:06:05;97736.53;;;19.24;84.48
40918;BME280;26644;50.248;19.032;2023-07-13T03:09:20;97748.03;;;19.23;84.36
40918;BME280;26644;50.248;19.032;2023-07-13T03:12:27;97749.91;;;19.19;84.61
40918;BME280;26644;50.248;19.032;2023-07-13T03:15:32;97753.34;;;19.28;84.57
40918;BME280;26644;50.248;19.032;2023-07-13T03:18:38;97771.47;;;19.34;84.25
40918;BME280;26644;50.248;19.032;2023-07-13T03:21:45;97775.59;;;19.40;84.42
40918;BME280;26644;50.248;19.032;2023-07-13T03:24:52;97786.09;;;19.47;84.07
40918;BME280;26644;50.248;19.032;2023-07-13T03:27:58;97789.97;;;19.42;84.81
40918;BME280;26644;50.248;19.032;2023-07-13T03:31:04;97806.25;;;19.56;85.16
40918;BME280;26644;50.248;19.032;2023-07-13T03:34:12;97804.59;;;19.68;84.29
40918;BME280;26644;50.248;19.032;2023-07-13T03:37:16;97806.94;;;19.82;83.50
40918;BME280;26644;50.248;19.032;2023-07-13T03:40:24;97776.38;;;19.69;83.32
40918;BME280;26644;50.248;19.032;2023-07-13T03:43:29;97803.91;;;20.03;82.77
40918;BME280;26644;50.248;19.032;2023-07-13T03:46:34;97811.06;;;20.16;82.00
40918;BME280;26644;50.248;19.032;2023-07-13T03:49:38;97815.31;;;20.26;81.69
40918;BME280;26644;50.248;19.032;2023-07-13T03:52:43;97819.63;;;20.39;81.04
40918;BME280;26644;50.248;19.032;2023-07-13T03:55:52;97812.31;;;20.51;80.82
40918;BME280;26644;50.248;19.032;2023-07-13T03:58:58;97814.03;;;20.55;80.64
40918;BME280;26644;50.248;19.032;2023-07-13T04:02:04;97830.66;;;20.68;80.30
40918;BME280;26644;50.248;19.032;2023-07-13T04:05:10;97821.75;;;20.62;80.84
40918;BME280;26644;50.248;19.032;2023-07-13T04:08:14;97839.56;;;20.73;80.67
40918;BME280;26644;50.248;19.032;2023-07-13T04:11:24;97848.47;;;20.79;80.75
40918;BME280;26644;50.248;19.032;2023-07-13T04:14:29;97837.84;;;20.85;79.94
40918;BME280;26644;50.248;19.032;2023-07-13T04:17:34;97853.19;;;20.95;79.72
40918;BME280;26644;50.248;19.032;2023-07-13T04:20:39;97853.19;;;20.95;80.34
40918;BME280;26644;50.248;19.032;2023-07-13T04:23:44;97834.94;;;20.97;80.68
40918;BME280;26644;50.248;19.032;2023-07-13T04:26:50;97843.75;;;21.15;79.18
40918;BME280;26644;50.248;19.032;2023-07-13T04:29:55;97841.47;;;21.21;78.50
40918;BME280;26644;50.248;19.032;2023-07-13T04:32:59;97857.75;;;21.35;78.61
40918;BME280;26644;50.248;19.032;2023-07-13T04:36:06;97850.75;;;21.45;78.36
40918;BME280;26644;50.248;19.032;2023-07-13T04:39:10;97832.25;;;21.56;78.48
40918;BME280;26644;50.248;19.032;2023-07-13T04:42:18;97829.16;;;21.61;78.51
40918;BME280;26644;50.248;19.032;2023-07-13T04:45:22;97813.34;;;21.69;75.62
40918;BME280;26644;50.248;19.032;2023-07-13T04:48:28;97807.63;;;21.81;74.22
40918;BME280;26644;50.248;19.032;2023-07-13T04:51:33;97825.94;;;21.98;74.62
40918;BME280;26644;50.248;19.032;2023-07-13T04:54:38;97814.00;;;22.01;75.77
40918;BME280;26644;50.248;19.032;2023-07-13T04:57:46;97822.75;;;22.23;75.07
40918;BME280;26644;50.248;19.032;2023-07-13T05:00:52;97820.22;;;22.37;73.60
40918;BME280;26644;50.248;19.032;2023-07-13T05:03:56;97811.31;;;22.51;73.36
40918;BME280;26644;50.248;19.032;2023-07-13T05:07:02;97810.41;;;22.70;72.56
40918;BME280;26644;50.248;19.032;2023-07-13T05:10:08;97802.53;;;22.80;72.65
40918;BME280;26644;50.248;19.032;2023-07-13T05:13:16;97808.94;;;23.07;71.37
40918;BME280;26644;50.248;19.032;2023-07-13T05:16:20;97817.75;;;23.36;69.94
40918;BME280;26644;50.248;19.032;2023-07-13T05:19:25;97819.66;;;23.62;69.58
40918;BME280;26644;50.248;19.032;2023-07-13T05:22:30;97815.19;;;23.91;69.20
40918;BME280;26644;50.248;19.032;2023-07-13T05:25:36;97830.06;;;24.33;67.86
40918;BME280;26644;50.248;19.032;2023-07-13T05:28:43;97839.25;;;24.71;65.88
40918;BME280;26644;50.248;19.032;2023-07-13T05:31:49;97833.06;;;25.07;64.81
40918;BME280;26644;50.248;19.032;2023-07-13T05:34:53;97842.59;;;25.54;62.88
40918;BME280;26644;50.248;19.032;2023-07-13T05:37:58;97839.97;;;26.01;61.85
40918;BME280;26644;50.248;19.032;2023-07-13T05:41:03;97838.44;;;26.47;59.85
40918;BME280;26644;50.248;19.032;2023-07-13T05:44:10;97832.44;;;26.85;58.30
40918;BME280;26644;50.248;19.032;2023-07-13T05:47:15;97816.31;;;27.14;57.39
40918;BME280;26644;50.248;19.032;2023-07-13T05:50:20;97816.28;;;27.32;57.00
40918;BME280;26644;50.248;19.032;2023-07-13T05:53:24;97821.47;;;27.45;56.59
40918;BME280;26644;50.248;19.032;2023-07-13T05:56:29;97821.03;;;27.53;55.98
40918;BME280;26644;50.248;19.032;2023-07-13T05:59:36;97819.47;;;27.42;56.08
40918;BME280;26644;50.248;19.032;2023-07-13T06:02:41;97815.03;;;27.41;56.06
40918;BME280;26644;50.248;19.032;2023-07-13T06:05:45;97812.25;;;27.30;55.95
40918;BME280;26644;50.248;19.032;2023-07-13T06:08:50;97818.69;;;27.23;55.95
40918;BME280;26644;50.248;19.032;2023-07-13T06:11:55;97811.88;;;27.13;55.08
40918;BME280;26644;50.248;19.032;2023-07-13T06:15:04;97817.13;;;27.00;55.75
40918;BME280;26644;50.248;19.032;2023-07-13T06:18:09;97818.75;;;26.98;56.04
40918;BME280;26644;50.248;19.032;2023-07-13T06:21:16;97821.16;;;26.96;55.40
40918;BME280;26644;50.248;19.032;2023-07-13T06:24:22;97818.75;;;27.01;55.00
40918;BME280;26644;50.248;19.032;2023-07-13T06:27:27;97818.72;;;27.12;55.36
40918;BME280;26644;50.248;19.032;2023-07-13T06:30:34;97807.03;;;27.21;55.37
40918;BME280;26644;50.248;19.032;2023-07-13T06:33:39;97817.00;;;27.47;54.69
40918;BME280;26644;50.248;19.032;2023-07-13T06:36:44;97811.75;;;27.56;54.00
40918;BME280;26644;50.248;19.032;2023-07-13T06:39:49;97829.03;;;27.69;54.10
40918;BME280;26644;50.248;19.032;2023-07-13T06:42:53;97820.19;;;27.64;54.66
40918;BME280;26644;50.248;19.032;2023-07-13T06:46:01;97819.00;;;27.58;54.64
40918;BME280;26644;50.248;19.032;2023-07-13T06:49:05;97819.41;;;27.60;54.42
40918;BME280;26644;50.248;19.032;2023-07-13T06:52:10;97818.97;;;27.65;54.40
40918;BME280;26644;50.248;19.032;2023-07-13T06:55:14;97821.38;;;27.70;54.21
40918;BME280;26644;50.248;19.032;2023-07-13T06:58:20;97818.16;;;27.64;54.33
40918;BME280;26644;50.248;19.032;2023-07-13T07:01:27;97835.91;;;27.65;54.56
40918;BME280;26644;50.248;19.032;2023-07-13T07:04:32;97839.56;;;27.58;54.60
40918;BME280;26644;50.248;19.032;2023-07-13T07:07:36;97842.38;;;27.47;55.08
40918;BME280;26644;50.248;19.032;2023-07-13T07:10:42;97843.66;;;27.35;55.42
40918;BME280;26644;50.248;19.032;2023-07-13T07:13:46;97858.56;;;27.25;55.67
40918;BME280;26644;50.248;19.032;2023-07-13T07:16:53;97857.75;;;27.10;55.98
40918;BME280;26644;50.248;19.032;2023-07-13T07:19:59;97865.41;;;26.92;56.81
40918;BME280;26644;50.248;19.032;2023-07-13T07:23:05;97879.09;;;26.68;56.74
40918;BME280;26644;50.248;19.032;2023-07-13T07:26:09;97882.28;;;26.48;57.76
40918;BME280;26644;50.248;19.032;2023-07-13T07:29:14;97865.34;;;26.23;57.67
40918;BME280;26644;50.248;19.032;2023-07-13T07:32:21;97880.22;;;26.27;58.17
40918;BME280;26644;50.248;19.032;2023-07-13T07:35:26;97895.03;;;26.13;58.50
40918;BME280;26644;50.248;19.032;2023-07-13T07:38:30;97893.78;;;25.96;58.22
40918;BME280;26644;50.248;19.032;2023-07-13T07:41:35;97894.88;;;25.73;59.99
40918;BME280;26644;50.248;19.032;2023-07-13T07:44:40;97891.94;;;25.52;61.10
40918;BME280;26644;50.248;19.032;2023-07-13T07:47:48;97885.03;;;25.31;62.03
40918;BME280;26644;50.248;19.032;2023-07-13T07:50:52;97893.28;;;25.13;63.04
40918;BME280;26644;50.248;19.032;2023-07-13T07:53:57;97878.75;;;24.97;63.96
40918;BME280;26644;50.248;19.032;2023-07-13T07:57:01;97885.13;;;24.94;63.59
40918;BME280;26644;50.248;19.032;2023-07-13T08:00:07;97881.09;;;24.87;64.24
40918;BME280;26644;50.248;19.032;2023-07-13T08:03:23;97873.44;;;24.88;64.26
40918;BME280;26644;50.248;19.032;2023-07-13T08:06:28;97870.28;;;24.93;64.86
40918;BME280;26644;50.248;19.032;2023-07-13T08:09:34;97862.31;;;24.99;64.91
40918;BME280;26644;50.248;19.032;2023-07-13T08:12:40;97866.00;;;25.14;64.41
40918;BME280;26644;50.248;19.032;2023-07-13T08:15:44;97854.13;;;25.35;63.86
40918;BME280;26644;50.248;19.032;2023-07-13T08:18:54;97860.72;;;25.68;62.49
40918;BME280;26644;50.248;19.032;2023-07-13T08:21:58;97862.03;;;25.96;60.34
40918;BME280;26644;50.248;19.032;2023-07-13T08:25:04;97856.44;;;26.06;59.06
40918;BME280;26644;50.248;19.032;2023-07-13T08:28:08;97854.50;;;26.29;59.02
40918;BME280;26644;50.248;19.032;2023-07-13T08:31:13;97848.88;;;26.32;59.40
40918;BME280;26644;50.248;19.032;2023-07-13T08:34:20;97856.53;;;26.46;59.35
40918;BME280;26644;50.248;19.032;2023-07-13T08:37:25;97849.75;;;26.62;58.40
40918;BME280;26644;50.248;19.032;2023-07-13T08:40:30;97852.97;;;26.71;56.44
40918;BME280;26644;50.248;19.032;2023-07-13T08:43:36;97863.41;;;26.74;56.36
40918;BME280;26644;50.248;19.032;2023-07-13T08:46:42;97860.63;;;26.70;56.05
40918;BME280;26644;50.248;19.032;2023-07-13T08:49:54;97854.97;;;26.67;55.30
40918;BME280;26644;50.248;19.032;2023-07-13T08:53:03;97866.22;;;26.78;55.33
40918;BME280;26644;50.248;19.032;2023-07-13T08:56:18;97863.81;;;26.87;53.12
40918;BME280;26644;50.248;19.032;2023-07-13T08:59:28;97867.84;;;26.89;51.34
40918;BME280;26644;50.248;19.032;2023-07-13T09:02:45;97870.25;;;26.87;50.81
40918;BME280;26644;50.248;19.032;2023-07-13T09:06:00;97864.63;;;26.84;50.87
40918;BME280;26644;50.248;19.032;2023-07-13T09:09:18;97865.41;;;26.70;51.85
40918;BME280;26644;50.248;19.032;2023-07-13T09:12:45;97868.63;;;26.65;53.60
40918;BME280;26644;50.248;19.032;2023-07-13T09:15:56;97861.38;;;26.56;53.90
40918;BME280;26644;50.248;19.032;2023-07-13T09:19:07;97874.63;;;26.38;54.28
40918;BME280;26644;50.248;19.032;2023-07-13T09:22:33;97879.81;;;26.25;55.16
40918;BME280;26644;50.248;19.032;2023-07-13T09:25:42;97868.91;;;26.02;54.00
40918;BME280;26644;50.248;19.032;2023-07-13T09:28:55;97871.28;;;25.96;55.27
40918;BME280;26644;50.248;19.032;2023-07-13T09:32:10;97866.84;;;25.95;55.25
40918;BME280;26644;50.248;19.032;2023-07-13T09:35:24;97864.88;;;25.99;55.45
40918;BME280;26644;50.248;19.032;2023-07-13T09:38:34;97870.53;;;26.03;55.90
40918;BME280;26644;50.248;19.032;2023-07-13T09:41:49;97888.09;;;25.89;56.77
40918;BME280;26644;50.248;19.032;2023-07-13T09:45:01;97895.63;;;25.67;57.05
40918;BME280;26644;50.248;19.032;2023-07-13T09:48:12;97891.72;;;25.16;57.42
40918;BME280;26644;50.248;19.032;2023-07-13T09:51:18;97901.00;;;24.71;58.51
40918;BME280;26644;50.248;19.032;2023-07-13T09:54:26;97910.47;;;24.22;59.72
40918;BME280;26644;50.248;19.032;2023-07-13T09:57:30;97912.41;;;23.84;60.64
40918;BME280;26644;50.248;19.032;2023-07-13T10:00:35;97924.00;;;23.52;61.19
40918;BME280;26644;50.248;19.032;2023-07-13T10:03:53;97931.84;;;23.16;61.10
40918;BME280;26644;50.248;19.032;2023-07-13T10:07:07;97962.72;;;22.73;62.36
40918;BME280;26644;50.248;19.032;2023-07-13T10:10:18;97961.94;;;22.33;62.76
40918;BME280;26644;50.248;19.032;2023-07-13T10:13:33;97973.44;;;21.89;64.50
40918;BME280;26644;50.248;19.032;2023-07-13T10:16:43;97986.59;;;21.37;66.28
40918;BME280;26644;50.248;19.032;2023-07-13T10:19:50;97977.53;;;21.08;67.44
40918;BME280;26644;50.248;19.032;2023-07-13T10:23:00;97965.69;;;20.83;68.21
40918;BME280;26644;50.248;19.032;2023-07-13T10:26:19;97985.13;;;20.63;68.56
40918;BME280;26644;50.248;19.032;2023-07-13T10:29:34;97988.91;;;20.26;70.22
40918;BME280;26644;50.248;19.032;2023-07-13T10:32:43;97990.59;;;20.03;71.83
40918;BME280;26644;50.248;19.032;2023-07-13T10:35:52;97996.13;;;19.74;73.49
40918;BME280;26644;50.248;19.032;2023-07-13T10:39:05;97990.72;;;19.41;74.15
40918;BME280;26644;50.248;19.032;2023-07-13T10:42:21;97993.72;;;19.11;76.00
40918;BME280;26644;50.248;19.032;2023-07-13T10:45:35;97989.03;;;18.90;76.78
40918;BME280;26644;50.248;19.032;2023-07-13T10:48:44;97983.03;;;18.76;78.17
40918;BME280;26644;50.248;19.032;2023-07-13T10:51:53;97992.72;;;18.70;78.59
40918;BME280;26644;50.248;19.032;2023-07-13T10:54:57;97991.09;;;18.56;79.13
40918;BME280;26644;50.248;19.032;2023-07-13T10:58:13;98010.69;;;18.60;79.95
40918;BME280;26644;50.248;19.032;2023-07-13T11:01:24;98007.16;;;18.51;79.56
40918;BME280;26644;50.248;19.032;2023-07-13T11:04:40;98002.16;;;18.44;80.32
40918;BME280;26644;50.248;19.032;2023-07-13T11:07:55;97993.19;;;18.38;80.11
40918;BME280;26644;50.248;19.032;2023-07-13T11:11:35;98005.63;;;18.41;80.03
40918;BME280;26644;50.248;19.032;2023-07-13T11:15:04;98027.22;;;18.35;80.08
40918;BME280;26644;50.248;19.032;2023-07-13T11:18:22;98015.31;;;18.35;80.57
40918;BME280;26644;50.248;19.032;2023-07-13T11:21:29;98011.69;;;18.34;80.59
40918;BME280;26644;50.248;19.032;2023-07-13T11:24:49;98018.81;;;18.44;81.08
40918;BME280;26644;50.248;19.032;2023-07-13T11:28:16;98018.50;;;18.46;80.65
40918;BME280;26644;50.248;19.032;2023-07-13T11:31:33;98012.72;;;18.51;81.52
40918;BME280;26644;50.248;19.032;2023-07-13T11:34:39;98024.09;;;18.58;81.12
40918;BME280;26644;50.248;19.032;2023-07-13T11:37:45;98028.28;;;18.64;80.42
40918;BME280;26644;50.248;19.032;2023-07-13T11:40:54;98032.81;;;18.69;80.32
40918;BME280;26644;50.248;19.032;2023-07-13T11:44:12;98008.81;;;18.64;79.55
40918;BME280;26644;50.248;19.032;2023-07-13T11:47:22;98020.78;;;18.77;80.42
40918;BME280;26644;50.248;19.032;2023-07-13T11:50:27;98015.22;;;18.77;79.27
40918;BME280;26644;50.248;19.032;2023-07-13T11:53:39;98019.84;;;18.73;78.87
40918;BME280;26644;50.248;19.032;2023-07-13T11:56:55;98027.16;;;18.77;79.33
40918;BME280;26644;50.248;19.032;2023-07-13T12:00:11;98030.44;;;18.92;80.29
40918;BME280;26644;50.248;19.032;2023-07-13T12:03:25;98030.34;;;19.13;80.02
40918;BME280;26644;50.248;19.032;2023-07-13T12:06:31;98040.59;;;19.34;79.06
40918;BME280;26644;50.248;19.032;2023-07-13T12:12:50;98037.44;;;19.72;77.92
40918;BME280;26644;50.248;19.032;2023-07-13T12:15:57;98028.00;;;19.89;77.63
40918;BME280;26644;50.248;19.032;2023-07-13T12:19:17;98033.56;;;20.14;76.84
40918;BME280;26644;50.248;19.032;2023-07-13T12:22:25;98041.81;;;20.39;76.16
40918;BME280;26644;50.248;19.032;2023-07-13T12:25:29;98041.16;;;20.58;74.35
40918;BME280;26644;50.248;19.032;2023-07-13T12:28:38;98052.00;;;20.75;73.33
40918;BME280;26644;50.248;19.032;2023-07-13T12:31:49;98041.66;;;20.92;72.00
40918;BME280;26644;50.248;19.032;2023-07-13T12:35:12;98043.44;;;21.13;72.59
40918;BME280;26644;50.248;19.032;2023-07-13T12:38:19;98053.25;;;21.38;72.60
40918;BME280;26644;50.248;19.032;2023-07-13T12:41:25;98056.38;;;21.53;71.43
40918;BME280;26644;50.248;19.032;2023-07-13T12:44:30;98058.72;;;21.67;70.24
40918;BME280;26644;50.248;19.032;2023-07-13T12:47:40;98060.16;;;21.77;69.07
40918;BME280;26644;50.248;19.032;2023-07-13T12:50:49;98054.59;;;21.77;69.54
40918;BME280;26644;50.248;19.032;2023-07-13T12:54:05;98058.91;;;21.74;70.25
40918;BME280;26644;50.248;19.032;2023-07-13T12:57:17;98046.44;;;21.71;70.63
40918;BME280;26644;50.248;19.032;2023-07-13T13:00:25;98062.69;;;21.82;70.76
40918;BME280;26644;50.248;19.032;2023-07-13T13:03:38;98062.22;;;21.96;71.61
40918;BME280;26644;50.248;19.032;2023-07-13T13:06:48;98063.72;;;22.09;70.42
40918;BME280;26644;50.248;19.032;2023-07-13T13:09:52;98078.53;;;22.29;69.16
40918;BME280;26644;50.248;19.032;2023-07-13T13:12:57;98059.88;;;22.17;68.72
40918;BME280;26644;50.248;19.032;2023-07-13T13:16:02;98069.28;;;22.29;69.90
40918;BME280;26644;50.248;19.032;2023-07-13T13:19:14;98082.72;;;22.39;68.10
40918;BME280;26644;50.248;19.032;2023-07-13T13:22:23;98092.06;;;22.47;67.00
40918;BME280;26644;50.248;19.032;2023-07-13T13:25:28;98049.66;;;22.25;67.64
40918;BME280;26644;50.248;19.032;2023-07-13T13:28:32;98080.44;;;22.64;66.72
40918;BME280;26644;50.248;19.032;2023-07-13T13:31:38;98070.59;;;22.70;66.93
40918;BME280;26644;50.248;19.032;2023-07-13T13:34:42;98028.84;;;22.42;66.82
40918;BME280;26644;50.248;19.032;2023-07-13T13:37:50;98071.00;;;22.72;66.34
40918;BME280;26644;50.248;19.032;2023-07-13T13:40:54;98079.19;;;22.81;66.31
40918;BME280;26644;50.248;19.032;2023-07-13T13:43:59;98083.75;;;22.89;65.53
40918;BME280;26644;50.248;19.032;2023-07-13T13:47:21;98083.69;;;22.86;65.02
40918;BME280;26644;50.248;19.032;2023-07-13T13:50:35;98091.25;;;22.85;65.16
40918;BME280;26644;50.248;19.032;2023-07-13T13:53:42;98086.13;;;22.87;64.66
40918;BME280;26644;50.248;19.032;2023-07-13T13:56:49;98081.25;;;22.84;65.22
40918;BME280;26644;50.248;19.032;2023-07-13T13:59:54;98088.75;;;22.80;65.82
40918;BME280;26644;50.248;19.032;2023-07-13T14:03:00;98082.66;;;22.74;65.75
40918;BME280;26644;50.248;19.032;2023-07-13T14:06:04;98091.34;;;22.69;64.99
40918;BME280;26644;50.248;19.032;2023-07-13T14:09:15;98098.50;;;22.67;63.71
40918;BME280;26644;50.248;19.032;2023-07-13T14:12:21;98099.91;;;22.57;64.35
40918;BME280;26644;50.248;19.032;2023-07-13T14:15:29;98100.06;;;22.48;63.56
40918;BME280;26644;50.248;19.032;2023-07-13T14:18:34;98117.50;;;22.57;63.93
40918;BME280;26644;50.248;19.032;2023-07-13T14:21:40;98111.00;;;22.53;64.34
40918;BME280;26644;50.248;19.032;2023-07-13T14:24:47;98103.41;;;22.54;65.16
40918;BME280;26644;50.248;19.032;2023-07-13T14:27:56;98085.75;;;22.69;64.92
40918;BME280;26644;50.248;19.032;2023-07-13T14:31:08;98088.47;;;22.85;63.07
40918;BME280;26644;50.248;19.032;2023-07-13T14:34:13;98094.50;;;23.07;62.00
40918;BME280;26644;50.248;19.032;2023-07-13T14:37:19;98097.78;;;23.13;61.21
40918;BME280;26644;50.248;19.032;2023-07-13T14:40:30;98086.88;;;23.27;61.96
40918;BME280;26644;50.248;19.032;2023-07-13T14:43:35;98080.81;;;23.25;62.46
40918;BME280;26644;50.248;19.032;2023-07-13T14:46:41;98064.16;;;23.32;62.51
40918;BME280;26644;50.248;19.032;2023-07-13T14:49:48;98081.63;;;23.49;61.63
40918;BME280;26644;50.248;19.032;2023-07-13T14:52:53;98075.16;;;23.45;61.48
40918;BME280;26644;50.248;19.032;2023-07-13T14:55:59;98078.06;;;23.52;61.99
40918;BME280;26644;50.248;19.032;2023-07-13T14:59:04;98088.47;;;23.51;60.67
40918;BME280;26644;50.248;19.032;2023-07-13T15:02:17;98088.72;;;23.43;60.51
40918;BME280;26644;50.248;19.032;2023-07-13T15:05:28;98105.88;;;23.18;60.07
40918;BME280;26644;50.248;19.032;2023-07-13T15:08:34;98105.44;;;23.16;60.90
40918;BME280;26644;50.248;19.032;2023-07-13T15:11:42;98102.66;;;22.96;61.69
40918;BME280;26644;50.248;19.032;2023-07-13T15:14:46;98094.88;;;22.86;62.03
40918;BME280;26644;50.248;19.032;2023-07-13T15:17:51;98084.72;;;22.78;61.69
40918;BME280;26644;50.248;19.032;2023-07-13T15:20:55;98083.91;;;22.77;61.66
40918;BME280;26644;50.248;19.032;2023-07-13T15:24:05;98075.97;;;22.60;61.12
40918;BME280;26644;50.248;19.032;2023-07-13T15:27:14;98067.44;;;22.52;60.85
40918;BME280;26644;50.248;19.032;2023-07-13T15:30:19;98072.41;;;22.43;60.46
40918;BME280;26644;50.248;19.032;2023-07-13T15:33:26;98071.16;;;22.40;60.00
40918;BME280;26644;50.248;19.032;2023-07-13T15:36:32;98076.69;;;22.37;59.88
40918;BME280;26644;50.248;19.032;2023-07-13T15:39:36;98081.06;;;22.38;58.74
40918;BME280;26644;50.248;19.032;2023-07-13T15:42:45;98073.13;;;22.20;58.01
40918;BME280;26644;50.248;19.032;2023-07-13T15:45:49;98078.72;;;22.20;59.13
40918;BME280;26644;50.248;19.032;2023-07-13T15:48:57;98089.19;;;22.23;59.38
40918;BME280;26644;50.248;19.032;2023-07-13T15:52:01;98096.38;;;22.24;59.30
40918;BME280;26644;50.248;19.032;2023-07-13T15:55:10;98087.75;;;22.14;59.89
40918;BME280;26644;50.248;19.032;2023-07-13T15:58:18;98099.69;;;22.11;61.15
40918;BME280;26644;50.248;19.032;2023-07-13T16:01:24;98095.63;;;22.08;61.49
40918;BME280;26644;50.248;19.032;2023-07-13T16:04:29;98091.13;;;22.03;61.51
40918;BME280;26644;50.248;19.032;2023-07-13T16:07:34;98079.94;;;22.03;61.94
40918;BME280;26644;50.248;19.032;2023-07-13T16:10:38;98073.09;;;22.01;62.04
40918;BME280;26644;50.248;19.032;2023-07-13T16:13:48;98078.63;;;21.97;62.17
40918;BME280;26644;50.248;19.032;2023-07-13T16:16:55;98093.47;;;22.01;62.13
40918;BME280;26644;50.248;19.032;2023-07-13T16:20:00;98093.47;;;22.01;62.52
40918;BME280;26644;50.248;19.032;2023-07-13T16:23:08;98095.91;;;22.03;61.03
40918;BME280;26644;50.248;19.032;2023-07-13T16:26:25;98102.75;;;22.05;61.11
40918;BME280;26644;50.248;19.032;2023-07-13T16:29:42;98101.13;;;22.04;61.12